Time;durP1;ratioP1;P1;durP2;ratioP2;P2;SDS_P1;SDS_P2;PMS_P1;PMS_P2;Temp;Humidity;BMP_temperature;BMP_pressure;BME280_temperature;BME280_humidity;BME280_pressure;Samples;Min_cycle;Max_cycle;Signal;HPM_P1;HPM_P2
2022/04/24 00:00:13;;;;;;;3.88;1.83;;;;;;;17.84;52.52;96136.03;5114357;28;20019;-33
2022/04/24 00:02:39;;;;;;;4.63;1.33;;;;;;;17.78;52.93;96148.19;5114401;28;20020;-33
2022/04/24 00:05:10;;;;;;;4.00;1.45;;;;;;;17.71;53.36;96140.38;5114455;28;20375;-33
2022/04/24 00:07:36;;;;;;;3.03;1.20;;;;;;;17.54;54.51;96154.59;5114392;28;20102;-33
2022/04/24 00:10:02;;;;;;;4.82;1.30;;;;;;;17.39;55.36;96153.91;5114253;28;20095;-33
2022/04/24 00:12:27;;;;;;;3.83;1.25;;;;;;;16.88;57.48;96182.53;5114190;28;20023;-33
2022/04/24 00:14:53;;;;;;;2.50;1.10;;;;;;;17.44;55.65;96177.13;5095901;28;20058;-33
2022/04/24 00:17:20;;;;;;;3.35;1.40;;;;;;;17.56;55.31;96159.59;5113139;28;20379;-33
2022/04/24 00:19:48;;;;;;;4.05;1.10;;;;;;;17.58;55.81;96170.84;5112148;28;20077;-33
2022/04/24 00:22:15;;;;;;;5.30;1.55;;;;;;;17.53;55.74;96144.88;5112966;28;20055;-33
2022/04/24 00:24:40;;;;;;;3.53;1.27;;;;;;;17.15;57.41;96169.75;5114188;28;20030;-33
2022/04/24 00:27:08;;;;;;;3.22;1.30;;;;;;;17.38;56.67;96151.63;5114274;28;20024;-33
2022/04/24 00:29:33;;;;;;;5.75;1.48;;;;;;;17.31;56.94;96133.59;5114108;28;20024;-33
2022/04/24 00:32:00;;;;;;;3.55;1.02;;;;;;;17.05;58.31;96116.31;5113965;28;20424;-33
2022/04/24 00:34:25;;;;;;;3.97;1.20;;;;;;;17.24;57.37;96112.84;5114128;28;20034;-33
2022/04/24 00:36:51;;;;;;;4.93;1.30;;;;;;;17.03;58.08;96088.63;5114160;28;20023;-33
2022/04/24 00:39:16;;;;;;;7.47;1.50;;;;;;;17.38;56.88;96097.56;5113911;28;20027;-33
2022/04/24 00:41:49;;;;;;;5.05;1.40;;;;;;;17.47;56.78;96070.00;5114198;28;20103;-33
2022/04/24 00:44:16;;;;;;;;;;;;;;;17.40;56.97;96114.28;5114206;28;20043;-33
2022/04/24 00:46:45;;;;;;;5.47;1.55;;;;;;;17.54;56.12;96077.84;5114218;28;19932;-33
2022/04/24 00:49:12;;;;;;;5.30;1.45;;;;;;;17.42;56.97;96098.13;5113724;28;20039;-34
2022/04/24 00:51:39;;;;;;;5.78;1.08;;;;;;;17.58;56.32;96105.78;5115032;28;20015;-34
2022/04/24 00:54:09;;;;;;;5.10;1.10;;;;;;;17.52;56.67;96061.09;5118148;28;20042;-34
2022/04/24 00:56:35;;;;;;;2.42;1.10;;;;;;;17.52;56.65;96080.31;5099980;28;20028;-33
2022/04/24 00:59:04;;;;;;;7.03;1.40;;;;;;;17.65;56.26;96084.72;5118008;28;20020;-32
2022/04/24 01:01:31;;;;;;;3.70;1.20;;;;;;;17.42;56.83;96067.22;5117817;28;20467;-33
2022/04/24 01:04:02;;;;;;;6.65;1.17;;;;;;;17.54;56.56;96053.16;5117873;28;20507;-33
2022/04/24 01:06:37;;;;;;;4.85;1.35;;;;;;;17.58;56.03;96072.88;5118349;28;20047;-34
2022/04/24 01:09:19;;;;;;;4.07;1.50;;;;;;;17.55;56.06;96087.56;5117850;28;20077;-33
2022/04/24 01:11:47;;;;;;;3.83;1.10;;;;;;;17.53;55.92;96068.09;5117677;28;20026;-32
2022/04/24 01:14:16;;;;;;;2.47;0.80;;;;;;;17.49;56.11;96059.31;5117557;28;20304;-33
2022/04/24 01:16:43;;;;;;;3.80;1.10;;;;;;;17.56;55.67;96034.22;5117844;28;20023;-33
2022/04/24 01:19:08;;;;;;;6.43;1.63;;;;;;;17.49;55.86;96050.34;5117561;28;20383;-33
2022/04/24 01:21:35;;;;;;;3.80;1.17;;;;;;;17.52;55.86;96076.81;5117685;28;20027;-33
2022/04/24 01:24:03;;;;;;;5.18;1.20;;;;;;;17.33;56.23;96059.88;5117607;28;20051;-33
2022/04/24 01:26:29;;;;;;;5.68;1.30;;;;;;;17.24;56.46;96066.25;5117604;28;20034;-32
2022/04/24 01:28:54;;;;;;;5.30;1.60;;;;;;;16.99;56.76;96031.28;5099277;28;20484;-32
2022/04/24 01:31:20;;;;;;;5.13;1.10;;;;;;;17.34;55.83;96071.59;5117519;28;20073;-33
2022/04/24 01:33:51;;;;;;;8.48;1.48;;;;;;;17.41;55.32;96066.47;5117317;28;20112;-33
2022/04/24 01:36:17;;;;;;;6.57;1.48;;;;;;;17.49;54.96;96020.19;5117174;28;20032;-33
2022/04/24 01:38:42;;;;;;;5.38;0.77;;;;;;;17.39;55.10;96016.09;5117226;28;20536;-33
2022/04/24 01:41:10;;;;;;;6.47;1.13;;;;;;;17.49;54.72;96050.34;5117246;28;20024;-33
2022/04/24 01:43:38;;;;;;;6.63;1.15;;;;;;;17.32;55.18;96013.75;5116981;28;20383;-32
2022/04/24 01:46:08;;;;;;;9.77;2.08;;;;;;;17.53;54.51;96029.72;5098425;28;20039;-34
2022/04/24 01:48:34;;;;;;;7.07;1.42;;;;;;;17.40;54.91;96054.00;5117000;28;20468;-33
2022/04/24 01:51:03;;;;;;;9.48;1.50;;;;;;;17.37;54.86;96027.53;5116743;28;20024;-34
2022/04/24 01:53:29;;;;;;;9.63;1.55;;;;;;;17.57;54.13;96032.97;5116861;28;20076;-32
2022/04/24 01:56:00;;;;;;;7.68;1.20;;;;;;;17.39;54.75;96022.31;5116726;28;20023;-33
2022/04/24 01:58:26;;;;;;;9.02;1.67;;;;;;;17.33;54.94;96032.47;5116957;28;20020;-32
2022/04/24 02:00:52;;;;;;;8.73;1.33;;;;;;;17.46;54.49;96015.66;5116284;28;20390;-34
2022/04/24 02:03:18;;;;;;;9.40;1.63;;;;;;;17.57;53.91;96038.47;5115977;28;20028;-32
2022/04/24 02:05:44;;;;;;;7.13;1.60;;;;;;;17.63;53.81;96027.59;5098580;28;20435;-32
2022/04/24 02:08:09;;;;;;;7.78;1.50;;;;;;;17.57;54.19;96040.47;5116559;28;20049;-33
2022/04/24 02:10:35;;;;;;;5.53;1.30;;;;;;;17.46;54.38;96024.63;5116434;28;20058;-33
2022/04/24 02:13:00;;;;;;;6.72;1.42;;;;;;;17.64;53.77;96033.84;5098309;28;20028;-33
2022/04/24 02:15:26;;;;;;;9.93;1.58;;;;;;;17.53;54.09;96020.75;5116558;28;20032;-34
2022/04/24 02:17:53;;;;;;;6.75;1.55;;;;;;;17.68;53.41;96012.47;5098035;28;20028;-33
2022/04/24 02:20:18;;;;;;;5.93;1.08;;;;;;;17.68;53.80;96009.72;5116428;28;20021;-32
2022/04/24 02:22:44;;;;;;;9.40;1.98;;;;;;;17.55;53.91;96013.53;5116524;28;20382;-33
2022/04/24 02:25:09;;;;;;;6.40;1.67;;;;;;;17.49;54.04;96012.72;5116293;28;20036;-33
2022/04/24 02:27:35;;;;;;;12.18;2.05;;;;;;;17.44;54.39;96002.44;5116207;28;20024;-33
2022/04/24 02:30:07;;;;;;;5.38;1.33;;;;;;;17.31;54.72;96006.78;5116133;28;20092;-33
2022/04/24 02:32:36;;;;;;;12.27;1.67;;;;;;;17.53;54.25;96013.28;5115313;28;20032;-33
2022/04/24 02:35:02;;;;;;;7.53;1.50;;;;;;;17.54;53.89;96001.06;5115862;28;20024;-33
2022/04/24 02:37:28;;;;;;;9.75;1.30;;;;;;;17.50;54.03;95994.28;5116102;28;20352;-33
2022/04/24 02:39:59;;;;;;;6.53;1.40;;;;;;;17.48;54.14;95994.00;5097668;28;20084;-33
2022/04/24 02:42:25;;;;;;;7.47;1.90;;;;;;;17.47;54.46;95985.03;5116059;28;20464;-33
2022/04/24 02:44:50;;;;;;;9.93;1.40;;;;;;;17.30;54.72;96008.78;5115550;28;20059;-33
2022/04/24 02:47:16;;;;;;;8.75;2.10;;;;;;;17.43;54.50;95989.97;5097487;28;20031;-34
2022/04/24 02:49:45;;;;;;;6.57;1.45;;;;;;;17.46;54.74;96018.41;5097484;28;20080;-32
2022/04/24 02:52:10;;;;;;;6.30;1.83;;;;;;;17.62;53.95;95993.16;5115724;28;20066;-33
2022/04/24 02:54:39;;;;;;;9.68;1.88;;;;;;;17.68;53.90;95996.00;5115627;28;20463;-33
2022/04/24 02:57:05;;;;;;;9.88;2.08;;;;;;;17.67;53.75;95995.25;5115882;28;20104;-32
2022/04/24 02:59:32;;;;;;;9.48;1.45;;;;;;;17.58;54.19;95998.09;5097271;28;20076;-34
2022/04/24 03:01:57;;;;;;;7.20;1.70;;;;;;;17.60;54.22;96007.34;5115559;28;20103;-33
2022/04/24 03:04:23;;;;;;;8.40;1.52;;;;;;;17.61;54.23;95991.66;5097225;28;20111;-33
2022/04/24 03:06:48;;;;;;;7.40;1.58;;;;;;;17.62;54.23;96006.13;5115295;28;20409;-33
2022/04/24 03:09:14;;;;;;;6.85;1.85;;;;;;;17.60;54.15;95996.38;5115382;28;20486;-33
2022/04/24 03:11:39;;;;;;;8.05;2.03;;;;;;;17.50;54.91;95991.53;5115355;28;20032;-33
2022/04/24 03:14:05;;;;;;;8.18;1.52;;;;;;;17.44;54.87;96005.16;5095985;28;20052;-33
2022/04/24 03:16:31;;;;;;;8.38;1.65;;;;;;;17.54;54.41;95998.31;5115647;28;20033;-33
2022/04/24 03:18:56;;;;;;;6.07;1.55;;;;;;;17.66;54.22;95993.00;5097071;28;20060;-33
2022/04/24 03:21:21;;;;;;;7.43;1.98;;;;;;;17.62;54.24;96000.63;5115130;28;20459;-33
2022/04/24 03:23:47;;;;;;;8.93;1.80;;;;;;;17.70;53.92;95999.75;5115271;28;20020;-33
2022/04/24 03:26:13;;;;;;;6.38;1.42;;;;;;;17.68;54.10;95999.47;5115138;28;20028;-34
2022/04/24 03:28:42;;;;;;;10.52;1.38;;;;;;;17.60;54.36;95996.38;5115285;28;20016;-33
2022/04/24 03:31:08;;;;;;;5.18;1.40;;;;;;;17.64;54.24;95998.19;5115047;28;20016;-34
2022/04/24 03:33:34;;;;;;;9.52;1.77;;;;;;;17.62;54.60;95986.91;5114984;28;20383;-33
2022/04/24 03:35:59;;;;;;;10.40;2.38;;;;;;;17.67;54.25;95989.00;5114505;28;20063;-33
2022/04/24 03:38:26;;;;;;;8.93;2.20;;;;;;;17.69;54.25;95990.00;5114775;28;20058;-33
2022/04/24 03:40:51;;;;;;;7.80;1.20;;;;;;;17.75;53.76;95977.13;5114803;28;20019;-32
2022/04/24 03:43:17;;;;;;;4.40;1.02;;;;;;;17.75;54.12;95995.56;5096464;28;20026;-33
2022/04/24 03:45:43;;;;;;;8.20;1.40;;;;;;;17.72;53.97;96007.50;5114770;28;20054;-33
2022/04/24 03:48:09;;;;;;;7.93;1.73;;;;;;;17.71;54.01;96001.25;5114632;28;20032;-33
2022/04/24 03:50:34;;;;;;;7.25;1.20;;;;;;;17.63;54.52;95999.41;5114918;28;20020;-34
2022/04/24 03:53:00;;;;;;;7.07;1.55;;;;;;;17.69;54.36;96006.47;5114878;28;20395;-33
2022/04/24 03:55:25;;;;;;;7.38;1.40;;;;;;;17.73;53.83;96006.25;5114725;28;20023;-32
2022/04/24 03:57:51;;;;;;;8.15;1.30;;;;;;;17.70;54.28;96004.47;5114538;28;20024;-34
2022/04/24 04:00:17;;;;;;;4.57;1.17;;;;;;;17.66;54.50;96009.44;5114594;28;20152;-33
2022/04/24 04:02:47;;;;;;;9.48;1.40;;;;;;;17.62;54.62;96000.63;5114490;28;20440;-33
2022/04/24 04:05:13;;;;;;;9.52;2.03;;;;;;;17.65;54.57;96003.19;5096355;28;20016;-33
2022/04/24 04:07:39;;;;;;;9.23;1.58;;;;;;;17.68;54.39;95996.00;5114398;28;20015;-33
2022/04/24 04:10:06;;;;;;;7.38;1.27;;;;;;;17.58;54.97;96014.53;5114250;28;20047;-33
2022/04/24 04:12:32;;;;;;;8.50;1.65;;;;;;;17.63;54.76;95999.41;5114227;28;20092;-33
2022/04/24 04:15:00;;;;;;;7.03;1.50;;;;;;;17.64;54.73;96003.69;5114341;28;20463;-32
2022/04/24 04:17:25;;;;;;;6.93;1.50;;;;;;;17.64;54.83;96000.94;5114140;28;20028;-33
2022/04/24 04:19:52;;;;;;;8.90;1.75;;;;;;;17.64;54.75;95996.22;5114037;28;20106;-32
2022/04/24 04:22:18;;;;;;;6.38;1.48;;;;;;;17.60;55.03;95988.16;5114278;28;20043;-33
2022/04/24 04:24:44;;;;;;;8.35;1.92;;;;;;;17.66;54.64;95990.25;5114039;28;20054;-33
2022/04/24 04:27:10;;;;;;;8.02;2.00;;;;;;;17.63;55.12;95986.47;5114018;28;20076;-33
2022/04/24 04:29:36;;;;;;;8.82;1.55;;;;;;;17.66;54.90;95993.75;5114047;28;20048;-33
2022/04/24 04:32:02;;;;;;;4.35;1.60;;;;;;;17.74;54.76;96000.28;5113919;28;20469;-33
2022/04/24 04:34:28;;;;;;;6.55;1.75;;;;;;;17.80;54.34;96003.09;5113911;28;20027;-34
2022/04/24 04:36:53;;;;;;;7.97;1.90;;;;;;;17.67;54.96;96008.22;5113907;28;20024;-33
2022/04/24 04:39:20;;;;;;;6.80;1.17;;;;;;;17.62;54.98;96001.38;5113796;28;20096;-33
2022/04/24 04:41:46;;;;;;;10.90;1.85;;;;;;;17.61;54.79;95999.88;5114022;28;20051;-33
2022/04/24 04:44:12;;;;;;;10.23;1.60;;;;;;;17.54;55.29;96006.56;5113695;28;20534;-33
2022/04/24 04:46:38;;;;;;;6.60;1.63;;;;;;;17.53;55.19;95991.34;5113758;28;20107;-33
2022/04/24 04:49:07;;;;;;;8.52;1.65;;;;;;;17.66;54.66;95990.25;5113728;28;20015;-33
2022/04/24 04:51:32;;;;;;;5.78;1.73;;;;;;;17.61;54.51;95986.16;5112358;28;20024;-32
2022/04/24 04:53:58;;;;;;;6.72;1.40;;;;;;;17.69;54.17;95992.75;5113695;28;20533;-33
2022/04/24 04:56:23;;;;;;;4.18;1.60;;;;;;;17.62;54.53;95997.88;5114050;28;20028;-32
2022/04/24 04:58:49;;;;;;;6.53;1.95;;;;;;;17.63;54.30;96000.19;5113682;28;20024;-33
2022/04/24 05:01:15;;;;;;;7.07;1.83;;;;;;;17.52;54.49;95994.56;5113491;28;20019;-34
2022/04/24 05:03:41;;;;;;;6.20;1.58;;;;;;;17.50;54.99;96006.00;5113963;28;20081;-33
2022/04/24 05:12:52;;;;;;;12.30;1.88;;;;;;;17.53;54.12;96013.28;5112229;28;20042;-33
2022/04/24 05:15:21;;;;;;;7.47;1.33;;;;;;;17.66;53.84;96003.94;5113663;28;20425;-33
2022/04/24 05:17:48;;;;;;;9.00;2.38;;;;;;;17.56;53.85;96014.28;5113549;28;20024;-33
2022/04/24 05:20:13;;;;;;;8.90;1.70;;;;;;;17.59;53.97;96011.31;5095136;28;20051;-33
2022/04/24 05:22:41;;;;;;;5.78;1.33;;;;;;;17.50;54.21;96006.00;5113406;28;20475;-33
2022/04/24 05:25:10;;;;;;;6.78;1.55;;;;;;;17.47;53.99;96020.66;5095253;28;20477;-33
2022/04/24 05:27:37;;;;;;;5.72;1.48;;;;;;;17.67;53.41;96016.44;5113665;28;20031;-33
2022/04/24 05:30:07;;;;;;;9.10;1.60;;;;;;;17.51;53.87;96015.72;5113309;28;20047;-33
2022/04/24 05:32:48;;;;;;;7.78;1.58;;;;;;;17.57;53.74;96013.78;5113802;28;20098;-33
2022/04/24 05:35:14;;;;;;;7.30;1.20;;;;;;;17.48;53.69;96013.94;5113297;28;20463;-33
2022/04/24 05:37:40;;;;;;;5.85;1.60;;;;;;;17.50;53.83;96014.22;5114461;28;20024;-34
2022/04/24 05:40:06;;;;;;;6.93;1.52;;;;;;;17.63;53.17;96016.63;5117233;28;20047;-33
2022/04/24 05:42:32;;;;;;;6.95;1.88;;;;;;;17.71;52.91;96012.22;5117080;28;20573;-33
2022/04/24 05:44:59;;;;;;;9.38;1.50;;;;;;;17.39;53.81;96022.31;5116775;28;20055;-33
2022/04/24 05:47:25;;;;;;;5.53;1.27;;;;;;;17.48;53.64;96016.69;5116935;28;20020;-33
2022/04/24 05:49:50;;;;;;;6.13;1.42;;;;;;;17.54;53.27;96020.25;5116913;28;20589;-34
2022/04/24 05:52:17;;;;;;;5.25;1.35;;;;;;;17.58;53.00;96026.28;5117055;28;20020;-33
2022/04/24 05:54:42;;;;;;;6.43;1.38;;;;;;;17.54;53.03;96020.25;5116718;28;20072;-34
2022/04/24 05:57:08;;;;;;;4.85;1.05;;;;;;;17.59;52.85;96027.78;5116877;28;20098;-33
2022/04/24 05:59:33;;;;;;;4.88;0.95;;;;;;;17.59;53.01;96016.81;5117056;28;20115;-33
2022/04/24 06:02:00;;;;;;;4.95;1.73;;;;;;;17.55;52.69;96016.28;5108564;28;20015;-33
2022/04/24 06:04:26;;;;;;;7.55;1.75;;;;;;;17.51;53.13;96032.19;5109083;28;20106;-33
2022/04/24 06:06:52;;;;;;;4.45;0.95;;;;;;;17.56;52.85;96025.25;5093452;28;20114;-33
2022/04/24 06:09:18;;;;;;;7.20;1.30;;;;;;;17.57;52.63;96029.50;5094283;28;20166;-33
2022/04/24 06:11:44;;;;;;;5.70;1.00;;;;;;;17.64;52.55;96042.06;5075871;28;20024;-33
2022/04/24 06:14:09;;;;;;;7.32;1.10;;;;;;;17.61;52.80;96046.50;5093977;28;20027;-33
2022/04/24 06:16:36;;;;;;;6.15;1.00;;;;;;;17.64;52.38;96048.31;5093992;28;20020;-33
2022/04/24 06:19:01;;;;;;;5.25;1.20;;;;;;;17.55;52.94;96043.72;5094808;28;20391;-33
2022/04/24 06:21:27;;;;;;;3.10;1.00;;;;;;;17.62;52.45;96048.00;5114308;28;20027;-33
2022/04/24 06:23:52;;;;;;;4.05;0.98;;;;;;;17.56;52.54;96050.66;5096045;28;20032;-33
2022/04/24 06:26:19;;;;;;;3.30;0.80;;;;;;;17.59;52.33;96049.72;5095536;28;20028;-33
2022/04/24 06:28:44;;;;;;;7.15;1.25;;;;;;;17.53;52.43;96051.66;5114161;28;20115;-33
2022/04/24 06:31:10;;;;;;;2.22;0.85;;;;;;;17.55;52.27;96038.22;5112562;28;20114;-34
2022/04/24 06:33:35;;;;;;;7.18;1.30;;;;;;;17.54;52.29;96041.44;5093871;28;20035;-32
2022/04/24 06:36:02;;;;;;;2.92;0.90;;;;;;;17.53;52.33;96048.91;5093663;28;20035;-32
2022/04/24 06:38:28;;;;;;;3.33;0.90;;;;;;;17.43;52.59;96036.56;5093438;28;20028;-33
2022/04/24 06:40:54;;;;;;;6.57;1.30;;;;;;;17.44;52.56;96032.59;5075426;28;20066;-33
2022/04/24 06:43:19;;;;;;;5.07;1.35;;;;;;;17.33;52.92;96048.91;5075300;28;20028;-34
2022/04/24 06:45:45;;;;;;;5.15;0.98;;;;;;;17.49;52.22;96031.91;5093543;28;20056;-33
2022/04/24 06:48:12;;;;;;;5.75;1.17;;;;;;;17.33;52.65;96031.69;5075127;28;20081;-33
2022/04/24 06:50:40;;;;;;;6.75;1.15;;;;;;;17.35;52.75;96040.97;5092256;28;20028;-33
2022/04/24 06:53:18;;;;;;;3.50;0.98;;;;;;;17.26;52.64;96045.81;5093470;28;20032;-33
2022/04/24 06:55:46;;;;;;;5.20;0.90;;;;;;;17.23;52.74;96039.31;5095633;28;20024;-34
2022/04/24 06:58:14;;;;;;;5.03;1.15;;;;;;;17.27;52.73;96042.63;5113796;28;20059;-33
2022/04/24 07:00:42;;;;;;;5.45;1.45;;;;;;;17.34;52.61;96038.69;5113447;28;20034;-33
2022/04/24 07:03:20;;;;;;;5.45;1.73;;;;;;;17.31;52.34;96034.91;5101174;28;20103;-34
2022/04/24 07:05:47;;;;;;;7.90;1.10;;;;;;;17.24;52.23;96043.56;5095335;28;20020;-33
2022/04/24 07:08:13;;;;;;;6.68;1.13;;;;;;;17.16;52.70;96059.66;5095108;28;20511;-32
2022/04/24 07:10:39;;;;;;;4.55;1.00;;;;;;;17.11;52.83;96051.38;5095195;28;20030;-33
2022/04/24 07:13:05;;;;;;;4.10;1.08;;;;;;;17.34;52.00;96038.69;5094827;28;20156;-33
2022/04/24 07:15:33;;;;;;;6.68;1.50;;;;;;;17.07;52.18;96054.28;5094134;28;20028;-34
2022/04/24 07:17:59;;;;;;;5.03;1.02;;;;;;;17.29;51.98;96047.63;5076377;28;20052;-33
2022/04/24 07:20:27;;;;;;;5.20;0.90;;;;;;;17.44;51.64;96054.50;5094846;28;20013;-33
2022/04/24 07:22:54;;;;;;;6.70;1.30;;;;;;;17.41;51.44;96060.22;5094763;28;20052;-33
2022/04/24 07:25:24;;;;;;;3.22;0.90;;;;;;;17.29;51.50;96056.59;5094659;28;20024;-33
2022/04/24 07:27:51;;;;;;;5.28;0.90;;;;;;;17.26;51.56;96054.06;5094773;28;20487;-33
2022/04/24 07:30:20;;;;;;;5.22;0.80;;;;;;;17.21;51.45;96053.50;5094580;28;20028;-33
2022/04/24 07:32:54;;;;;;;5.30;0.98;;;;;;;17.20;51.15;96059.44;5094455;28;20031;-33
2022/04/24 07:35:25;;;;;;;4.15;0.88;;;;;;;17.19;51.04;96055.19;5094766;28;20032;-33
2022/04/24 07:37:51;;;;;;;3.25;0.70;;;;;;;17.35;50.45;96054.66;5094544;28;20028;-33
2022/04/24 07:40:20;;;;;;;3.92;1.00;;;;;;;17.34;50.54;96046.91;5094485;28;20016;-33
2022/04/24 07:42:56;;;;;;;5.47;0.93;;;;;;;17.20;50.53;96048.47;5094461;28;20024;-33
2022/04/24 07:45:26;;;;;;;3.83;0.98;;;;;;;17.40;50.19;96054.00;5094239;28;20048;-33
2022/04/24 07:47:53;;;;;;;2.60;0.75;;;;;;;17.03;50.71;96047.53;5094473;28;20400;-33
2022/04/24 07:50:20;;;;;;;6.63;1.10;;;;;;;16.83;50.55;96056.44;5096812;28;20056;-33
2022/04/24 07:52:47;;;;;;;4.78;0.80;;;;;;;17.11;50.09;96048.63;5094400;28;20032;-33
2022/04/24 07:55:19;;;;;;;5.68;1.08;;;;;;;17.12;49.56;96059.09;5093991;28;20463;-32
2022/04/24 07:57:53;;;;;;;2.75;0.80;;;;;;;16.87;49.87;96055.03;5093832;28;20032;-32
2022/04/24 08:00:21;;;;;;;5.43;0.85;;;;;;;16.33;49.32;96058.38;5093995;28;20047;-33
2022/04/24 08:02:57;;;;;;;3.20;0.90;;;;;;;16.80;49.75;96049.22;5093954;28;20024;-33
2022/04/24 08:05:39;;;;;;;4.93;1.35;;;;;;;16.94;49.31;96058.63;5075944;28;20073;-34
2022/04/24 08:08:11;;;;;;;2.55;0.70;;;;;;;16.86;49.20;96056.25;5094131;28;20364;-33
2022/04/24 08:10:39;;;;;;;4.68;0.77;;;;;;;16.72;48.89;96080.94;5093907;28;20028;-33
2022/04/24 08:13:05;;;;;;;5.70;0.60;;;;;;;16.75;48.65;96045.16;5093848;28;20016;-34
2022/04/24 08:15:35;;;;;;;5.13;0.80;;;;;;;16.75;48.62;96071.78;5092726;28;20028;-33
2022/04/24 08:18:02;;;;;;;5.85;1.73;;;;;;;17.11;47.55;96062.31;5107026;28;20024;-33
2022/04/24 08:20:28;;;;;;;4.30;0.98;;;;;;;17.26;47.08;96057.53;5104426;28;20027;-33
2022/04/24 08:22:55;;;;;;;4.28;0.73;;;;;;;17.17;47.21;96060.44;5106206;28;20031;-34
2022/04/24 08:25:34;;;;;;;2.88;0.80;;;;;;;17.04;47.23;96076.44;5111670;28;20030;-33
2022/04/24 08:28:02;;;;;;;3.75;0.50;;;;;;;17.05;46.99;96078.69;5111520;28;20615;-34
2022/04/24 08:30:28;;;;;;;1.90;0.60;;;;;;;17.19;46.45;96066.16;5112037;28;20070;-33
2022/04/24 08:32:53;;;;;;;4.22;0.60;;;;;;;17.21;46.06;96075.41;5111798;28;20051;-33
2022/04/24 08:35:20;;;;;;;5.30;0.80;;;;;;;17.01;46.24;96091.09;5112008;28;20127;-33
2022/04/24 08:37:47;;;;;;;2.97;0.50;;;;;;;17.07;45.61;96080.94;5111131;28;20027;-33
2022/04/24 08:40:14;;;;;;;2.80;0.77;;;;;;;17.07;45.70;96086.41;5111519;28;20073;-32
2022/04/24 08:42:41;;;;;;;1.58;0.60;;;;;;;16.78;45.94;96071.59;5111188;28;20471;-33
2022/04/24 08:45:13;;;;;;;2.13;0.80;;;;;;;17.13;45.51;96073.56;5093141;28;20055;-33
2022/04/24 08:47:39;;;;;;;1.13;0.50;;;;;;;16.87;45.50;96078.94;5112023;28;20101;-32
2022/04/24 08:50:05;;;;;;;2.97;0.50;;;;;;;16.63;45.64;96081.06;5111631;28;20819;-32
2022/04/24 08:52:31;;;;;;;3.67;0.50;;;;;;;16.87;44.31;96078.94;5111808;28;20110;-33
2022/04/24 08:54:58;;;;;;;2.85;0.60;;;;;;;16.96;43.97;96075.31;5111381;28;20110;-33
2022/04/24 08:57:30;;;;;;;3.00;0.50;;;;;;;16.92;43.94;96100.19;5111534;28;20077;-33
2022/04/24 08:59:59;;;;;;;3.08;0.75;;;;;;;17.02;43.75;96078.91;5111973;28;20401;-32
2022/04/24 09:02:25;;;;;;;2.58;0.60;;;;;;;16.99;43.80;96066.13;5111634;28;20057;-33
2022/04/24 09:04:53;;;;;;;2.50;0.52;;;;;;;16.85;43.55;96070.44;5111589;28;20027;-33
2022/04/24 09:07:19;;;;;;;2.88;0.70;;;;;;;16.94;43.38;96062.09;5111236;28;20023;-33
2022/04/24 09:09:47;;;;;;;2.95;0.60;;;;;;;17.26;43.31;96084.94;5093166;28;20084;-33
2022/04/24 09:12:15;;;;;;;2.17;0.60;;;;;;;17.05;42.62;96073.22;5111906;28;20357;-33
2022/04/24 09:14:47;;;;;;;2.22;0.57;;;;;;;16.93;43.58;96059.84;5097396;28;20379;-33
2022/04/24 09:17:21;;;;;;;3.92;0.63;;;;;;;16.64;42.40;96071.63;5115775;28;20095;-33
2022/04/24 09:19:47;;;;;;;3.03;0.55;;;;;;;16.97;43.07;96071.34;5115359;28;20035;-33
2022/04/24 09:22:13;;;;;;;1.35;0.57;;;;;;;17.22;42.73;96076.91;5114334;28;20097;-33
2022/04/24 09:24:41;;;;;;;2.90;0.60;;;;;;;17.01;43.18;96069.91;5097177;28;20380;-32
2022/04/24 09:27:07;;;;;;;1.45;0.43;;;;;;;16.90;42.10;96066.28;5115571;28;20367;-33
2022/04/24 09:29:32;;;;;;;0.98;0.40;;;;;;;17.07;42.81;96076.22;5115421;28;20035;-33
2022/04/24 09:31:58;;;;;;;2.75;0.65;;;;;;;16.95;41.39;96096.47;5115043;28;20027;-33
2022/04/24 09:34:30;;;;;;;1.55;0.40;;;;;;;17.03;42.27;96075.69;5115277;28;20028;-33
2022/04/24 09:37:01;;;;;;;2.28;0.80;;;;;;;17.23;42.26;96083.16;5115248;28;20047;-33
2022/04/24 09:39:33;;;;;;;3.03;0.68;;;;;;;17.21;42.03;96086.38;5115215;28;20050;-32
2022/04/24 09:42:08;;;;;;;1.10;0.40;;;;;;;17.24;41.58;96099.13;5115445;28;20015;-33
2022/04/24 09:44:47;;;;;;;3.25;0.50;;;;;;;17.12;41.87;96080.28;5114832;28;20048;-33
2022/04/24 09:47:13;;;;;;;3.53;0.55;;;;;;;16.68;39.82;96105.78;5115121;28;20019;-33
2022/04/24 09:49:45;;;;;;;2.40;0.50;;;;;;;16.98;41.57;96130.38;5115090;28;20019;-33
2022/04/24 09:52:13;;;;;;;1.45;0.40;;;;;;;17.07;41.48;96105.59;5114932;28;20051;-33
2022/04/24 09:54:45;;;;;;;2.17;0.73;;;;;;;17.10;40.89;96097.19;5114927;28;20024;-33
2022/04/24 09:57:12;;;;;;;1.33;0.32;;;;;;;17.10;40.47;96118.34;5114539;28;20148;-33
2022/04/24 09:59:43;;;;;;;2.33;0.50;;;;;;;16.88;40.03;96094.13;5114772;28;20027;-33
2022/04/24 10:02:10;;;;;;;1.83;0.43;;;;;;;16.88;40.18;96146.94;5114736;28;20076;-34
2022/04/24 10:04:38;;;;;;;4.13;0.52;;;;;;;16.93;40.01;96095.47;5114762;28;20039;-32
2022/04/24 10:07:11;;;;;;;3.50;0.63;;;;;;;16.75;40.80;96107.38;5114419;28;20027;-33
2022/04/24 10:09:43;;;;;;;;;;;;;;;17.15;41.04;96098.50;5114739;28;20068;-33
2022/04/24 10:12:10;;;;;;;1.55;0.52;;;;;;;17.34;40.85;96097.00;5114668;28;20367;-32
2022/04/24 10:14:45;;;;;;;2.70;0.40;;;;;;;17.38;41.33;96127.72;5114564;28;20028;-33
2022/04/24 10:17:42;;;;;;;2.10;0.57;;;;;;;17.04;41.02;96096.38;5114651;28;20027;-33
2022/04/24 10:20:39;;;;;;;1.25;0.50;;;;;;;17.06;40.84;96096.63;5102210;28;20061;-33
2022/04/24 10:23:04;;;;;;;1.92;0.50;;;;;;;16.96;41.99;96141.06;5112468;28;20085;-34
2022/04/24 10:25:31;;;;;;;2.80;0.88;;;;;;;17.07;41.79;96070.72;5097892;28;20350;-33
2022/04/24 10:28:08;;;;;;;4.13;0.90;;;;;;;17.16;40.89;96067.13;5075449;28;20101;-33
2022/04/24 10:30:34;;;;;;;5.95;1.83;;;;;;;17.08;41.29;96082.44;5093930;28;20046;-33
2022/04/24 10:33:14;;;;;;;3.75;1.10;;;;;;;17.17;41.11;96085.09;5075365;28;21460;-33
2022/04/24 10:35:51;;;;;;;5.28;1.50;;;;;;;17.19;41.33;96063.41;5093828;28;20073;-32
2022/04/24 10:38:24;;;;;;;5.38;1.05;;;;;;;17.00;42.51;96095.81;5093462;28;20078;-33
2022/04/24 10:40:58;;;;;;;3.88;0.95;;;;;;;17.15;41.83;96046.44;5093822;28;20023;-33
2022/04/24 10:43:25;;;;;;;2.92;1.20;;;;;;;17.30;41.82;96052.63;5093413;28;20020;-33
2022/04/24 10:45:52;;;;;;;3.28;1.05;;;;;;;17.16;41.45;96061.66;5093442;28;20055;-33
2022/04/24 10:48:19;;;;;;;4.15;0.80;;;;;;;17.35;41.86;96090.28;5093001;28;20110;-33
2022/04/24 10:50:51;;;;;;;3.40;0.95;;;;;;;17.33;42.25;96042.66;5093423;28;20150;-33
2022/04/24 10:53:17;;;;;;;3.33;0.88;;;;;;;17.34;42.00;96055.13;5093561;28;20158;-33
2022/04/24 10:55:43;;;;;;;2.92;1.10;;;;;;;17.24;41.93;96088.16;5092893;28;20156;-32
2022/04/24 10:58:10;;;;;;;4.60;0.90;;;;;;;17.36;41.83;96047.94;5093496;28;20035;-32
2022/04/24 11:00:38;;;;;;;2.40;0.75;;;;;;;17.31;42.12;96050.63;5093260;28;20129;-33
2022/04/24 11:03:11;;;;;;;3.70;1.00;;;;;;;17.24;42.28;96049.03;5091215;28;20020;-32
2022/04/24 11:05:39;;;;;;;3.28;0.85;;;;;;;17.22;42.21;96051.50;5115845;28;20027;-32
2022/04/24 11:08:07;;;;;;;1.25;0.77;;;;;;;17.30;42.14;96112.16;5115712;28;20422;-32
2022/04/24 11:10:43;;;;;;;2.22;0.90;;;;;;;17.26;42.08;96054.06;5115266;28;20485;-33
2022/04/24 11:13:19;;;;;;;2.33;0.93;;;;;;;17.37;41.73;96087.06;5115637;28;20393;-32
2022/04/24 11:15:47;;;;;;;2.05;0.90;;;;;;;17.44;39.91;96051.03;5115423;28;20475;-33
2022/04/24 11:18:19;;;;;;;1.35;0.75;;;;;;;17.54;41.58;96047.69;5115284;28;20102;-32
2022/04/24 11:20:53;;;;;;;1.73;0.80;;;;;;;17.38;41.65;96045.50;5115591;28;20028;-33
2022/04/24 11:23:20;;;;;;;2.38;0.90;;;;;;;17.59;41.48;96073.63;5097074;28;20023;-33
2022/04/24 11:25:46;;;;;;;3.10;1.05;;;;;;;17.32;41.19;96096.72;5115713;28;20066;-32
2022/04/24 11:28:12;;;;;;;2.22;0.60;;;;;;;17.34;41.86;96046.91;5115100;28;20421;-33
2022/04/24 11:30:38;;;;;;;2.90;0.73;;;;;;;17.24;41.88;96076.44;5080601;28;20028;-33
2022/04/24 11:33:05;;;;;;;4.40;0.47;;;;;;;17.32;41.51;96039.16;5094795;28;20027;-33
2022/04/24 11:35:33;;;;;;;1.85;0.60;;;;;;;17.38;41.82;96042.00;5094037;28;20023;-33
2022/04/24 11:37:59;;;;;;;3.92;0.85;;;;;;;17.48;41.70;96054.31;5098868;28;20518;-33
2022/04/24 11:40:25;;;;;;;1.75;0.70;;;;;;;17.57;41.57;96060.41;5105420;28;20022;-33
2022/04/24 11:42:51;;;;;;;2.60;0.50;;;;;;;17.47;41.91;96048.09;5094527;28;20102;-32